createdAt,value
2019-03-31T00:00:35.038Z,18.90
2019-03-31T00:03:08.272Z,18.57
2019-03-31T00:05:40.349Z,18.43
2019-03-31T00:08:12.729Z,18.03
2019-03-31T00:10:44.787Z,17.90
2019-03-31T00:13:17.361Z,17.33
2019-03-31T00:15:49.617Z,23.60
2019-03-31T00:18:21.972Z,22.63
2019-03-31T00:20:54.042Z,23.50
2019-03-31T00:23:26.098Z,19.27
2019-03-31T00:25:58.181Z,16.63
2019-03-31T00:28:30.199Z,18.57
2019-03-31T00:31:02.223Z,21.53
2019-03-31T00:33:34.233Z,20.83
2019-03-31T00:36:06.166Z,17.87
2019-03-31T00:38:38.118Z,24.20
2019-03-31T00:41:10.620Z,21.73
2019-03-31T00:43:42.833Z,19.83
2019-03-31T00:46:15.264Z,20.53
2019-03-31T00:48:47.294Z,20.07
2019-03-31T00:51:19.310Z,18.57
2019-03-31T00:53:51.418Z,19.93
2019-03-31T00:56:23.500Z,15.80
2019-03-31T00:58:55.772Z,17.40
2019-03-31T01:01:40.282Z,19.97
2019-03-31T01:04:13.439Z,19.43
2019-03-31T01:06:48.745Z,17.87
2019-03-31T01:09:28.801Z,17.57
2019-03-31T01:12:02.395Z,17.53
2019-03-31T01:14:35.160Z,18.97
2019-03-31T01:17:10.161Z,19.00
2019-03-31T01:19:42.188Z,21.57
2019-03-31T01:22:14.456Z,18.10
2019-03-31T01:24:46.830Z,18.17
2019-03-31T01:27:18.877Z,18.40
2019-03-31T01:29:51.351Z,18.20
2019-03-31T01:32:23.639Z,18.93
2019-03-31T01:34:57.474Z,17.47
2019-03-31T01:37:29.817Z,18.73
2019-03-31T01:40:02.491Z,17.43
2019-03-31T01:42:34.777Z,19.80
2019-03-31T01:45:07.520Z,19.23
2019-03-31T01:47:40.088Z,21.13
2019-03-31T01:50:14.886Z,18.90
2019-03-31T01:52:46.975Z,17.80
2019-03-31T01:55:19.195Z,19.10
2019-03-31T01:57:51.292Z,17.57
2019-03-31T02:00:39.171Z,17.93
2019-03-31T02:03:11.659Z,18.27
2019-03-31T02:05:44.037Z,18.23
2019-03-31T02:08:16.162Z,20.13
2019-03-31T02:10:48.793Z,20.97
2019-03-31T02:13:20.796Z,21.97
2019-03-31T02:15:52.855Z,20.17
2019-03-31T02:18:24.864Z,16.37
2019-03-31T02:20:57.355Z,20.17
2019-03-31T02:23:30.075Z,20.23
2019-03-31T02:26:02.079Z,18.83
2019-03-31T02:28:34.021Z,17.90
2019-03-31T02:31:08.768Z,17.93
2019-03-31T02:33:40.716Z,20.23
2019-03-31T02:36:14.072Z,21.90
2019-03-31T02:38:46.004Z,21.53
2019-03-31T02:41:19.584Z,20.47
2019-03-31T02:43:51.565Z,19.47
2019-03-31T02:46:23.736Z,17.33
2019-03-31T02:48:55.769Z,17.90
2019-03-31T02:51:27.995Z,18.23
2019-03-31T02:54:00.050Z,20.80
2019-03-31T02:56:34.114Z,19.73
2019-03-31T02:59:06.661Z,21.40
2019-03-31T03:01:39.433Z,19.90
2019-03-31T03:04:13.659Z,19.57
2019-03-31T03:06:47.567Z,17.00
2019-03-31T03:09:23.453Z,20.80
2019-03-31T03:11:58.870Z,21.13
2019-03-31T03:14:37.336Z,19.57
2019-03-31T03:17:09.826Z,22.17
2019-03-31T03:19:41.764Z,22.00
2019-03-31T03:22:13.868Z,19.33
2019-03-31T03:24:45.831Z,18.43
2019-03-31T03:27:17.796Z,20.87
2019-03-31T03:29:49.721Z,21.43
2019-03-31T03:32:21.772Z,22.40
2019-03-31T03:34:53.848Z,22.20
2019-03-31T03:37:25.908Z,22.40
2019-03-31T03:39:57.902Z,22.43
2019-03-31T03:42:30.197Z,19.27
2019-03-31T03:45:03.541Z,19.77
2019-03-31T03:47:35.564Z,18.77
2019-03-31T03:50:07.791Z,24.17
2019-03-31T03:52:39.852Z,18.10
2019-03-31T03:55:11.956Z,21.70
2019-03-31T03:57:43.935Z,22.23
2019-03-31T04:00:16.494Z,20.43
2019-03-31T04:02:48.533Z,18.80
2019-03-31T04:05:21.541Z,20.33
2019-03-31T04:07:53.546Z,22.03
2019-03-31T04:11:11.418Z,22.67
2019-03-31T04:13:43.533Z,20.50
2019-03-31T04:16:15.621Z,22.83
2019-03-31T04:18:48.347Z,21.17
2019-03-31T04:21:20.551Z,23.37
2019-03-31T04:23:52.619Z,25.37
2019-03-31T04:26:24.891Z,23.03
2019-03-31T04:28:56.976Z,25.07
2019-03-31T04:31:29.051Z,23.93
2019-03-31T04:34:01.030Z,25.20
2019-03-31T04:36:33.017Z,23.37
2019-03-31T04:39:07.004Z,25.43
2019-03-31T04:41:39.026Z,25.27
2019-03-31T04:44:10.987Z,24.07
2019-03-31T04:46:42.941Z,24.37
2019-03-31T04:49:14.919Z,24.33
2019-03-31T04:51:46.857Z,24.37
2019-03-31T04:54:19.140Z,26.87
2019-03-31T04:56:51.114Z,22.33
2019-03-31T04:59:23.442Z,24.47
2019-03-31T05:01:55.481Z,25.87
2019-03-31T05:04:27.453Z,31.53
2019-03-31T05:07:08.710Z,23.47
2019-03-31T05:09:40.937Z,26.10
2019-03-31T05:12:16.690Z,23.63
2019-03-31T05:14:47.050Z,24.50
2019-03-31T05:17:19.183Z,26.87
2019-03-31T05:19:51.507Z,25.40
2019-03-31T05:22:23.572Z,26.67
2019-03-31T05:24:56.214Z,26.43
2019-03-31T05:27:28.262Z,28.33
2019-03-31T05:30:00.586Z,27.70
2019-03-31T05:32:32.647Z,27.57
2019-03-31T05:35:04.925Z,26.77
2019-03-31T05:37:50.348Z,27.20
2019-03-31T05:40:10.844Z,26.53
2019-03-31T05:42:43.066Z,28.80
2019-03-31T05:45:15.281Z,24.27
2019-03-31T05:47:47.379Z,27.50
2019-03-31T05:50:19.382Z,26.27
2019-03-31T05:52:51.351Z,25.60
2019-03-31T05:55:23.297Z,22.73
2019-03-31T05:57:55.250Z,29.07
2019-03-31T06:00:40.125Z,31.90
2019-03-31T06:03:12.404Z,32.27
2019-03-31T06:05:44.570Z,29.43
2019-03-31T06:08:16.656Z,31.83
2019-03-31T06:10:49.297Z,28.03
2019-03-31T06:13:21.246Z,26.67
2019-03-31T06:15:53.659Z,30.93
2019-03-31T06:18:25.762Z,26.83
2019-03-31T06:20:57.827Z,28.40
2019-03-31T06:23:30.106Z,29.00
2019-03-31T06:26:02.129Z,24.33
2019-03-31T06:28:34.174Z,28.77
2019-03-31T06:31:06.260Z,24.73
2019-03-31T06:33:38.265Z,31.17
2019-03-31T06:36:10.302Z,28.93
2019-03-31T06:38:42.254Z,26.87
2019-03-31T06:41:14.704Z,23.37
2019-03-31T06:43:47.380Z,26.80
2019-03-31T06:46:19.447Z,22.60
2019-03-31T06:48:51.523Z,22.10
2019-03-31T06:51:23.506Z,24.60
2019-03-31T06:53:55.587Z,25.33
2019-03-31T06:56:27.734Z,24.40
2019-03-31T06:59:00.106Z,23.10
2019-03-31T07:01:32.096Z,26.30
2019-03-31T07:04:04.218Z,23.97
2019-03-31T07:06:36.194Z,25.70
2019-03-31T07:09:09.158Z,24.20
2019-03-31T07:11:41.442Z,25.00
2019-03-31T07:14:13.411Z,23.07
2019-03-31T07:16:45.514Z,25.10
2019-03-31T07:19:17.845Z,22.57
2019-03-31T07:21:49.955Z,31.03
2019-03-31T07:24:21.927Z,26.87
2019-03-31T07:26:54.195Z,24.80
2019-03-31T07:29:26.158Z,21.20
2019-03-31T07:31:59.178Z,25.53
2019-03-31T07:34:31.175Z,22.80
2019-03-31T07:37:03.107Z,22.83
2019-03-31T07:39:35.827Z,22.77
2019-03-31T07:42:08.329Z,23.57
2019-03-31T07:44:40.395Z,23.97
2019-03-31T07:47:12.618Z,24.80
2019-03-31T07:49:44.664Z,27.20
2019-03-31T07:52:17.000Z,25.27
2019-03-31T07:54:49.232Z,24.63
2019-03-31T07:57:21.237Z,27.77
2019-03-31T07:59:56.431Z,31.27
2019-03-31T08:02:27.484Z,27.53
2019-03-31T08:04:59.594Z,23.57
2019-03-31T08:07:31.688Z,27.23
2019-03-31T08:10:03.837Z,27.80
2019-03-31T08:12:35.914Z,26.70
2019-03-31T08:15:09.511Z,25.67
2019-03-31T08:17:42.857Z,28.53
2019-03-31T08:20:16.463Z,28.20
2019-03-31T08:22:48.671Z,27.40
2019-03-31T08:25:22.777Z,27.40
2019-03-31T08:27:54.830Z,29.33
2019-03-31T08:30:26.807Z,27.97
2019-03-31T08:32:58.872Z,27.77
2019-03-31T08:35:31.004Z,28.80
2019-03-31T08:38:03.410Z,27.43
2019-03-31T08:40:35.404Z,27.03
2019-03-31T08:43:07.465Z,28.73
2019-03-31T08:45:39.506Z,29.27
2019-03-31T08:48:11.552Z,24.40
2019-03-31T08:50:43.533Z,24.70
2019-03-31T08:53:15.621Z,26.43
2019-03-31T08:55:47.562Z,25.07
2019-03-31T08:58:19.694Z,26.87
2019-03-31T09:00:57.713Z,24.73
2019-03-31T09:03:29.698Z,26.77
2019-03-31T09:06:02.695Z,26.83
2019-03-31T09:08:35.102Z,25.47
2019-03-31T09:11:08.155Z,27.10
2019-03-31T09:13:40.310Z,26.37
2019-03-31T09:16:12.266Z,29.83
2019-03-31T09:18:44.204Z,27.37
2019-03-31T09:21:16.605Z,26.30
2019-03-31T09:23:48.563Z,28.45
2019-03-31T09:26:20.503Z,26.20
2019-03-31T09:28:52.593Z,28.57
2019-03-31T09:31:24.721Z,28.93
2019-03-31T09:33:56.794Z,29.52
2019-03-31T09:36:28.849Z,28.32
2019-03-31T09:39:00.844Z,32.33
2019-03-31T09:41:34.325Z,28.98
2019-03-31T09:44:07.226Z,28.45
2019-03-31T09:46:40.486Z,27.65
2019-03-31T09:49:12.546Z,30.00
2019-03-31T09:51:44.542Z,35.17
2019-03-31T09:54:16.677Z,31.50
2019-03-31T09:56:48.976Z,32.28
2019-03-31T09:59:21.052Z,36.70
2019-03-31T10:01:53.240Z,31.60
2019-03-31T10:04:25.657Z,31.85
2019-03-31T10:06:58.160Z,34.05
2019-03-31T10:09:30.751Z,38.13
2019-03-31T10:12:02.817Z,36.10
2019-03-31T10:14:34.795Z,34.00
2019-03-31T10:17:06.845Z,36.25
2019-03-31T10:19:39.465Z,32.50
2019-03-31T10:22:11.493Z,36.35
2019-03-31T10:24:43.460Z,31.25
2019-03-31T10:27:15.501Z,34.48
2019-03-31T10:29:47.475Z,35.78
2019-03-31T10:32:19.511Z,36.90
2019-03-31T10:34:51.473Z,34.20
2019-03-31T10:37:23.934Z,34.27
2019-03-31T10:39:55.921Z,34.63
2019-03-31T10:42:27.970Z,36.05
2019-03-31T10:45:00.020Z,33.85
2019-03-31T10:47:32.676Z,32.60
2019-03-31T10:50:05.561Z,33.98
2019-03-31T10:52:37.862Z,30.62
2019-03-31T10:55:10.610Z,36.10
2019-03-31T10:57:42.714Z,31.35
2019-03-31T11:00:19.034Z,32.78
2019-03-31T11:02:51.337Z,35.13
2019-03-31T11:05:23.405Z,34.90
2019-03-31T11:07:55.343Z,29.80
2019-03-31T11:10:27.508Z,28.67
2019-03-31T11:12:59.573Z,29.77
2019-03-31T11:15:31.620Z,27.13
2019-03-31T11:18:04.127Z,25.17
2019-03-31T11:20:36.664Z,28.27
2019-03-31T11:23:27.608Z,23.57
2019-03-31T11:25:59.739Z,19.12
2019-03-31T11:28:32.041Z,25.65
2019-03-31T11:31:04.540Z,23.57
2019-03-31T11:33:36.511Z,28.12
2019-03-31T11:36:08.567Z,28.50
2019-03-31T11:38:40.736Z,23.07
2019-03-31T11:41:12.819Z,23.77
2019-03-31T11:43:44.985Z,21.68
2019-03-31T11:46:18.092Z,22.20
2019-03-31T11:48:50.484Z,20.55
2019-03-31T11:51:22.559Z,18.07
2019-03-31T11:53:54.780Z,21.10
2019-03-31T11:56:26.931Z,18.62
2019-03-31T11:58:59.395Z,20.57
2019-03-31T12:01:31.500Z,23.80
2019-03-31T12:04:03.700Z,22.22
2019-03-31T12:06:35.701Z,23.18
2019-03-31T12:09:09.861Z,20.92
2019-03-31T12:11:45.385Z,21.27
2019-03-31T12:14:16.175Z,26.33
2019-03-31T12:16:48.532Z,23.25
2019-03-31T12:19:20.583Z,21.07
2019-03-31T12:21:52.599Z,21.60
2019-03-31T12:24:24.745Z,19.50
2019-03-31T12:26:56.850Z,18.60
2019-03-31T12:29:28.836Z,19.70
2019-03-31T12:32:01.568Z,20.20
2019-03-31T12:34:33.643Z,19.42
2019-03-31T12:37:05.903Z,19.60
2019-03-31T12:39:38.529Z,20.23
2019-03-31T12:42:10.851Z,18.67
2019-03-31T12:44:42.927Z,19.75
2019-03-31T12:47:15.476Z,20.88
2019-03-31T12:49:47.742Z,22.40
2019-03-31T12:52:19.752Z,24.50
2019-03-31T12:54:52.169Z,22.55
2019-03-31T12:57:24.241Z,19.55
2019-03-31T12:59:56.344Z,20.62
2019-03-31T13:02:28.370Z,21.42
2019-03-31T13:05:00.442Z,16.67
2019-03-31T13:07:32.475Z,20.25
2019-03-31T13:10:04.826Z,18.65
2019-03-31T13:12:37.000Z,18.35
2019-03-31T13:15:09.471Z,19.75
2019-03-31T13:17:41.645Z,18.25
2019-03-31T13:20:14.521Z,18.30
2019-03-31T13:22:46.602Z,17.92
2019-03-31T13:25:18.835Z,18.55
2019-03-31T13:27:50.943Z,15.38
2019-03-31T13:30:23.096Z,17.80
2019-03-31T13:32:55.245Z,19.23
2019-03-31T13:35:27.433Z,21.87
2019-03-31T13:38:10.355Z,20.55
2019-03-31T13:40:33.662Z,16.97
2019-03-31T13:43:05.948Z,20.43
2019-03-31T13:45:38.608Z,19.35
2019-03-31T13:48:11.034Z,15.98
2019-03-31T13:50:43.047Z,21.70
2019-03-31T13:53:16.926Z,15.00
2019-03-31T13:55:50.461Z,17.15
2019-03-31T13:58:23.968Z,15.80
2019-03-31T14:00:57.635Z,16.52
2019-03-31T14:03:31.350Z,17.55
2019-03-31T14:06:03.368Z,15.18
2019-03-31T14:08:35.445Z,20.37
2019-03-31T14:11:08.177Z,17.05
2019-03-31T14:13:40.544Z,16.10
2019-03-31T14:16:12.733Z,15.50
2019-03-31T14:18:44.819Z,14.35
2019-03-31T14:21:17.138Z,14.65
2019-03-31T14:23:49.319Z,13.48
2019-03-31T14:26:21.388Z,12.50
2019-03-31T14:28:53.412Z,12.35
2019-03-31T14:31:25.510Z,12.95
2019-03-31T14:33:57.694Z,11.25
2019-03-31T14:36:30.181Z,11.08
2019-03-31T14:39:05.444Z,11.83
2019-03-31T14:41:37.758Z,13.48
2019-03-31T14:44:10.831Z,10.72
2019-03-31T14:46:43.944Z,9.75
2019-03-31T14:49:16.486Z,10.70
2019-03-31T14:51:48.557Z,8.68
2019-03-31T14:54:20.945Z,10.20
2019-03-31T14:56:53.113Z,9.30
2019-03-31T14:59:25.285Z,7.60
2019-03-31T15:01:57.942Z,11.75
2019-03-31T15:04:29.952Z,7.53
2019-03-31T15:07:02.067Z,10.35
2019-03-31T15:09:34.147Z,8.73
2019-03-31T15:12:06.239Z,8.40
2019-03-31T15:14:38.330Z,12.10
2019-03-31T15:17:10.465Z,8.90
2019-03-31T15:19:42.521Z,7.35
2019-03-31T15:22:14.542Z,6.63
2019-03-31T15:24:46.554Z,6.40
2019-03-31T15:27:18.745Z,7.83
2019-03-31T15:29:51.900Z,6.17
2019-03-31T15:32:24.060Z,10.67
2019-03-31T15:34:56.521Z,6.57
2019-03-31T15:37:28.710Z,6.97
2019-03-31T15:40:01.090Z,8.93
2019-03-31T15:42:33.113Z,8.23
2019-03-31T15:45:05.749Z,10.20
2019-03-31T15:47:38.000Z,12.20
2019-03-31T15:50:10.635Z,7.90
2019-03-31T15:52:42.882Z,8.17
2019-03-31T15:55:15.520Z,10.10
2019-03-31T15:57:47.640Z,11.77
2019-03-31T16:00:20.709Z,9.17
2019-03-31T16:02:53.155Z,9.77
2019-03-31T16:05:25.377Z,10.40
2019-03-31T16:07:56.735Z,8.50
2019-03-31T16:10:29.065Z,10.23
2019-03-31T16:13:00.443Z,10.17
2019-03-31T16:15:31.995Z,11.87
2019-03-31T16:18:03.476Z,11.17
2019-03-31T16:20:34.739Z,10.20
2019-03-31T16:23:06.694Z,9.35
2019-03-31T16:25:40.663Z,10.37
2019-03-31T16:28:11.935Z,11.37
2019-03-31T16:30:43.499Z,10.05
2019-03-31T16:33:15.884Z,11.17
2019-03-31T16:35:48.374Z,10.30
2019-03-31T16:38:19.621Z,9.30
2019-03-31T16:40:51.014Z,11.57
2019-03-31T16:43:23.382Z,9.80
2019-03-31T16:45:54.745Z,12.97
2019-03-31T16:48:26.101Z,14.37
2019-03-31T16:50:57.488Z,13.83
2019-03-31T16:53:28.803Z,15.87
2019-03-31T16:56:02.000Z,16.67
2019-03-31T16:58:33.296Z,15.20
2019-03-31T17:01:05.080Z,15.83
2019-03-31T17:03:36.827Z,16.47
2019-03-31T17:06:08.913Z,15.27
2019-03-31T17:08:40.135Z,13.97
2019-03-31T17:11:11.366Z,12.90
2019-03-31T17:13:42.568Z,16.43
2019-03-31T17:16:15.533Z,15.67
2019-03-31T17:18:46.983Z,13.67
2019-03-31T17:21:18.343Z,15.10
2019-03-31T17:23:49.579Z,13.13
2019-03-31T17:26:20.908Z,12.50
2019-03-31T17:28:52.540Z,12.07
2019-03-31T17:31:23.910Z,10.33
2019-03-31T17:33:55.369Z,11.90
2019-03-31T17:36:26.724Z,8.77
2019-03-31T17:38:57.949Z,8.13
2019-03-31T17:41:29.212Z,8.43
2019-03-31T17:44:00.468Z,8.63
2019-03-31T17:46:31.816Z,12.83
2019-03-31T17:49:03.863Z,9.00
2019-03-31T17:51:35.167Z,9.67
2019-03-31T17:54:06.675Z,8.30
2019-03-31T17:56:37.834Z,8.37
2019-03-31T17:59:09.326Z,9.13
2019-03-31T18:01:41.043Z,10.03
2019-03-31T18:04:12.250Z,9.93
2019-03-31T18:06:43.601Z,11.40
2019-03-31T18:09:15.117Z,12.90
2019-03-31T18:11:46.591Z,12.77
2019-03-31T18:14:18.887Z,11.50
2019-03-31T18:16:50.242Z,14.13
2019-03-31T18:19:21.928Z,12.33
2019-03-31T18:21:53.681Z,13.83
2019-03-31T18:24:24.998Z,12.63
2019-03-31T18:26:56.308Z,12.33
2019-03-31T18:29:27.486Z,10.87
2019-03-31T18:31:58.849Z,12.20
2019-03-31T18:34:30.504Z,9.97
2019-03-31T18:37:01.774Z,10.50
2019-03-31T18:39:34.081Z,11.50
2019-03-31T18:42:05.445Z,9.83
2019-03-31T18:44:37.074Z,11.83
2019-03-31T18:47:08.476Z,10.67
2019-03-31T18:49:39.719Z,12.13
2019-03-31T18:52:11.300Z,10.77
2019-03-31T18:55:00.352Z,11.63
2019-03-31T18:57:39.812Z,9.90
2019-03-31T19:00:39.457Z,10.70
2019-03-31T19:03:31.575Z,11.73
2019-03-31T19:06:22.382Z,12.53
2019-03-31T19:08:59.796Z,11.97
2019-03-31T19:12:02.304Z,15.03
2019-03-31T19:14:52.482Z,11.73
2019-03-31T19:17:41.498Z,11.83
2019-03-31T19:20:27.955Z,15.60
2019-03-31T19:23:24.288Z,14.77
2019-03-31T19:26:13.317Z,11.00
2019-03-31T19:29:06.292Z,12.63
2019-03-31T19:31:55.966Z,17.70
2019-03-31T19:34:55.463Z,14.03
2019-03-31T19:37:48.526Z,16.37
2019-03-31T19:40:44.859Z,16.07
2019-03-31T19:43:33.187Z,19.00
2019-03-31T19:46:19.508Z,20.70
2019-03-31T19:49:05.536Z,25.73
2019-03-31T19:51:55.819Z,26.47
2019-03-31T19:54:58.439Z,27.10
2019-03-31T19:57:48.970Z,27.33
2019-03-31T20:00:33.614Z,30.37
2019-03-31T20:03:27.426Z,32.83
2019-03-31T20:06:16.324Z,27.63
2019-03-31T20:09:07.151Z,31.80
2019-03-31T20:11:52.122Z,35.33
2019-03-31T20:14:41.294Z,35.43
2019-03-31T20:17:33.761Z,35.20
2019-03-31T20:20:12.815Z,36.10
2019-03-31T20:23:01.997Z,36.57
2019-03-31T20:25:55.436Z,37.97
2019-03-31T20:29:04.353Z,39.93
2019-03-31T20:32:13.061Z,42.83
2019-03-31T20:35:01.726Z,45.27
2019-03-31T20:38:00.535Z,44.67
2019-03-31T20:40:50.614Z,42.73
2019-03-31T20:43:31.517Z,43.53
2019-03-31T20:46:04.523Z,41.47
2019-03-31T20:48:37.174Z,42.60
2019-03-31T20:51:08.845Z,47.43
2019-03-31T20:53:40.168Z,47.43
2019-03-31T20:56:11.707Z,46.00
2019-03-31T20:58:43.008Z,44.83
2019-03-31T21:01:14.698Z,50.50
2019-03-31T21:03:46.091Z,50.30
2019-03-31T21:06:17.383Z,44.93
2019-03-31T21:08:49.090Z,50.67
2019-03-31T21:11:20.289Z,47.27
2019-03-31T21:13:51.847Z,45.27
2019-03-31T21:16:23.164Z,51.47
2019-03-31T21:18:54.365Z,50.47
2019-03-31T21:21:25.861Z,48.27
2019-03-31T21:23:57.417Z,52.47
2019-03-31T21:26:28.823Z,55.67
2019-03-31T21:29:00.081Z,49.20
2019-03-31T21:31:31.350Z,49.80
2019-03-31T21:34:02.782Z,57.00
2019-03-31T21:36:34.150Z,47.63
2019-03-31T21:39:07.723Z,53.57
2019-03-31T21:41:40.441Z,49.03
2019-03-31T21:44:11.804Z,50.27
2019-03-31T21:46:43.228Z,57.70
2019-03-31T21:49:15.267Z,54.00
2019-03-31T21:51:46.626Z,54.97
2019-03-31T21:54:18.042Z,58.20
2019-03-31T21:56:49.324Z,54.20
2019-03-31T21:59:21.245Z,56.03
2019-03-31T22:01:52.642Z,59.13
2019-03-31T22:04:24.303Z,57.33
2019-03-31T22:06:55.458Z,56.23
2019-03-31T22:09:26.760Z,55.40
2019-03-31T22:11:57.930Z,58.30
2019-03-31T22:14:30.200Z,56.80
2019-03-31T22:17:01.464Z,58.73
2019-03-31T22:19:32.801Z,60.87
2019-03-31T22:22:04.329Z,59.40
2019-03-31T22:24:35.518Z,57.53
2019-03-31T22:27:06.998Z,61.93
2019-03-31T22:29:38.452Z,62.07
2019-03-31T22:32:10.140Z,63.17
2019-03-31T22:34:41.347Z,63.27
2019-03-31T22:37:12.574Z,60.10
2019-03-31T22:39:43.923Z,56.77
2019-03-31T22:42:16.467Z,63.77
2019-03-31T22:44:47.718Z,62.03
2019-03-31T22:47:19.352Z,63.57
2019-03-31T22:49:50.537Z,64.30
2019-03-31T22:52:21.777Z,62.33
2019-03-31T22:54:53.207Z,64.83
2019-03-31T22:57:24.610Z,63.87
2019-03-31T22:59:56.006Z,67.40
2019-03-31T23:02:27.446Z,66.70
2019-03-31T23:04:58.857Z,64.57
2019-03-31T23:07:30.437Z,62.67
2019-03-31T23:10:02.186Z,64.07
2019-03-31T23:12:33.731Z,63.50
2019-03-31T23:15:05.252Z,64.10
2019-03-31T23:17:36.728Z,66.00
2019-03-31T23:20:08.149Z,66.60
2019-03-31T23:22:39.756Z,64.73
2019-03-31T23:25:11.456Z,68.23
2019-03-31T23:27:42.894Z,65.47
2019-03-31T23:30:14.397Z,63.43
2019-03-31T23:32:45.556Z,63.63
2019-03-31T23:35:17.249Z,67.23
2019-03-31T23:37:48.373Z,69.63
2019-03-31T23:40:19.643Z,65.30
2019-03-31T23:42:51.188Z,72.53
2019-03-31T23:45:22.400Z,65.90
2019-03-31T23:47:54.559Z,69.47
2019-03-31T23:50:25.751Z,70.97
2019-03-31T23:52:56.846Z,67.87
2019-03-31T23:55:28.004Z,66.77
2019-03-31T23:57:59.156Z,68.77
